Flight Track Log - Related Links

Times and Time Zones

All times are in EDT time to prevent confusion due to time zone crossing. See the ASQ4179 flight status page for this flight to view local times or setup timezone preferences in your user account.

Time Position Orientation Groundspeed Altitude Reporting Facility
EDT Latitude Longitude Course Direction KTS MPH feet Rate Location/Type
Wed 06:43:47 AM 35.3706 -97.6094 154° Southeast 162 186 2,100  Level Fort Worth Center
Wed 06:44:54 AM 35.3164 -97.5917 165° South 200 230 4,000 1,512 Climbing Fort Worth Center
Wed 06:45:54 AM 35.2456 -97.5661 164° South 271 312 5,300 1,556 Climbing Fort Worth Center
Wed 06:46:00 AM 35.1204 -97.4795 175° South  Level Estimated
Wed 06:47:00 AM 35.0295 -97.4393 168° South  Level Estimated
Wed 06:47:09 AM 35.1664 -97.5331 161° South 287 330 7,500  Level Fort Worth Center
Wed 06:48:00 AM 34.9385 -97.3991 162° South  Level Estimated
Wed 06:48:09 AM 35.0914 -97.5050 163° South 287 330 9,200  Level Fort Worth Center
Wed 06:49:00 AM 34.8476 -97.3591 154° Southeast  Level Estimated
Wed 06:49:09 AM 35.0100 -97.4844 168° South 287 330 10,800  Level Fort Worth Center
Wed 06:50:09 AM 34.9264 -97.4592 166° South 294 338 11,800 1,050 Climbing Fort Worth Center
Wed 06:51:09 AM 34.8347 -97.4364 168° South 315 362 12,900 1,050 Climbing Fort Worth Center
Wed 06:52:09 AM 34.7367 -97.4086 167° South 340 391 13,900 1,050 Climbing Fort Worth Center
Wed 06:53:09 AM 34.6386 -97.3806 167° South 358 412 15,000 1,150 Climbing Fort Worth Center
Wed 06:54:09 AM 34.5364 -97.3531 168° South 369 425 16,200 1,150 Climbing Fort Worth Center
Wed 06:55:09 AM 34.4319 -97.3228 167° South 375 432 17,300 1,100 Climbing Fort Worth Center
Wed 06:56:09 AM 34.3297 -97.2953 167° South 375 432 18,400 1,150 Climbing Fort Worth Center
Wed 06:57:09 AM 34.2233 -97.2653 167° South 380 437 19,600 1,100 Climbing Fort Worth Center
Wed 06:58:09 AM 34.1169 -97.2353 167° South 386 444 20,600 1,150 Climbing Fort Worth Center
Wed 06:59:09 AM 34.0042 -97.2006 166° South 386 444 21,900 1,100 Climbing Fort Worth Center
Wed 07:00:09 AM 33.8936 -97.1733 168° South 392 451 22,800 950 Climbing Fort Worth Center
Wed 07:01:09 AM 33.7850 -97.1436 167° South 397 457 23,800 1,000 Climbing Fort Worth Center
Wed 07:02:09 AM 33.6722 -97.1114 167° South 403 464 24,800 600 Climbing Fort Worth Center
Wed 07:03:09 AM 33.5553 -97.0819 168° South 413 475 25,000 100 Climbing Fort Worth Center
Wed 07:04:09 AM 33.4339 -97.0500 168° South 431 496 25,000  Level Fort Worth Center
Wed 07:05:09 AM 33.3086 -97.0158 167° South 450 518 25,000  Level Fort Worth Center
Wed 07:06:09 AM 33.1811 -96.9792 166° South 464 534 25,000  Level Fort Worth Center
Wed 07:07:09 AM 33.0664 -96.9500 168° South 469 540 25,000  Level Fort Worth Center
Wed 07:08:09 AM 32.9347 -96.9183 169° South 474 545 25,000  Level Fort Worth Center
Wed 07:09:09 AM 32.7906 -96.8772 167° South 479 551 25,000  Level Fort Worth Center
Wed 07:10:09 AM 32.6733 -96.8433 166° South 479 551 25,000  Level Fort Worth Center
Wed 07:11:09 AM 32.5458 -96.8072 167° South 479 551 25,000  Level Fort Worth Center
Wed 07:12:09 AM 32.4164 -96.7711 167° South 479 551 25,000  Level Fort Worth Center
Wed 07:13:09 AM 32.2867 -96.7328 166° South 479 551 25,000  Level Fort Worth Center
Wed 07:14:09 AM 32.1569 -96.6969 167° South 479 551 25,000  Level Fort Worth Center
Wed 07:15:09 AM 32.0253 -96.6611 167° South 479 551 25,000  Level Fort Worth Center
Wed 07:16:09 AM 31.8872 -96.6181 165° South 468 539 25,000  Level Fort Worth Center
Wed 07:16:40 AM 31.8267 -96.6019 167° South 474 545 25,000  Level Houston Center
Wed 07:17:41 AM 31.6961 -96.5639 166° South 475 547 25,000  Level Houston Center
Wed 07:18:41 AM 31.5650 -96.5275 167° South 475 547 25,000  Level Houston Center
Wed 07:19:42 AM 31.4389 -96.4772 161° South 473 544 25,000  Level Houston Center
Wed 07:20:43 AM 31.3189 -96.4031 152° Southeast 478 550 25,000 -541 Level Houston Center
Wed 07:21:44 AM 31.2014 -96.3289 152° Southeast 474 545 23,900 -1,672 Descending Houston Center
Wed 07:22:45 AM 31.0858 -96.2569 152° Southeast 465 535 21,600 -2,281 Descending Houston Center
Wed 07:23:45 AM 30.9756 -96.1872 152° Southeast 447 514 19,300 -2,231 Descending Houston Center
Wed 07:24:46 AM 30.8719 -96.1233 152° Southeast 424 488 17,100 -2,066 Descending Houston Center
Wed 07:25:47 AM 30.7750 -96.0619 151° Southeast 398 458 15,100 -1,918 Descending Houston Center
Wed 07:26:48 AM 30.6733 -95.9983 152° Southeast 391 450 13,200 -1,770 Descending Houston Center
Wed 07:27:49 AM 30.5869 -95.9461 153° Southeast 385 443 11,500 -1,574 Descending Houston Center
Wed 07:28:50 AM 30.4958 -95.8892 152° Southeast 374 430 10,000 -738 Descending Houston Center
Wed 07:29:51 AM 30.4167 -95.8561 160° South 303 349 10,000 -295 Level Houston Center
Wed 07:30:52 AM 30.3400 -95.8286 163° South 290 334 9,400 -885 Descending Houston Center
Wed 07:31:53 AM 30.2653 -95.7981 161° South 285 328 8,200 -1,033 Descending Houston Center
Wed 07:32:54 AM 30.1950 -95.7711 162° South 270 311 7,300 -1,033 Descending Houston Center
Wed 07:33:55 AM 30.1264 -95.7447 162° South 262 302 6,100 -1,328 Descending Houston Center
Wed 07:34:56 AM 30.0597 -95.6989 149° Southeast 242 278 4,600 -1,230 Descending Houston Center
Wed 07:35:57 AM 30.0147 -95.6397 131° Southeast 243 280 3,600 -787 Descending Houston Center
Wed 07:36:58 AM 30.0036 -95.5636 100° East 241 277 3,000 -590 Descending Houston Center

Login

Don't have an account? Register now (free) for customized features, flight alerts, and more!